Time;durP1;ratioP1;P1;durP2;ratioP2;P2;SDS_P1;SDS_P2;PMS_P1;PMS_P2;Temp;Humidity;BMP_temperature;BMP_pressure;BME280_temperature;BME280_humidity;BME280_pressure;Samples;Min_cycle;Max_cycle;Signal;HPM_P1;HPM_P2
2022/09/03 00:02:23;;;;;;;32.78;31.48;;;;;;;16.18;65.93;101432.81;5081509;28;20085;-73
2022/09/03 00:05:10;;;;;;;34.05;32.83;;;;;;;16.14;65.58;101428.81;5071771;28;20016;-73
2022/09/03 00:07:48;;;;;;;30.27;29.17;;;;;;;16.12;66.27;101430.81;5060479;28;20030;-74
2022/09/03 00:10:39;;;;;;;36.05;34.67;;;;;;;16.01;66.52;101424.84;5080516;28;20535;-74
2022/09/03 00:13:07;;;;;;;34.10;32.85;;;;;;;16.02;66.52;101426.50;5043650;28;20024;-73
2022/09/03 00:15:35;;;;;;;38.85;37.33;;;;;;;16.00;66.50;101425.88;5082213;28;20020;-73
2022/09/03 00:18:06;;;;;;;34.05;32.70;;;;;;;16.03;67.12;101428.19;5077727;28;20381;-73
2022/09/03 00:20:44;;;;;;;32.25;31.05;;;;;;;15.89;67.11;101412.09;5075679;28;20020;-73
2022/09/03 00:23:17;;;;;;;35.97;34.60;;;;;;;15.98;66.77;101425.22;5073630;28;20036;-74
2022/09/03 00:26:04;;;;;;;35.22;33.92;;;;;;;15.94;66.64;101426.56;5081086;28;20030;-74
2022/09/03 00:28:40;;;;;;;32.28;31.08;;;;;;;15.92;67.06;101423.22;5074059;28;20035;-74
2022/09/03 00:31:15;;;;;;;35.20;33.88;;;;;;;15.90;67.03;101425.22;5079523;28;20044;-74
2022/09/03 00:33:42;;;;;;;34.38;33.05;;;;;;;15.88;67.28;101424.56;5072001;28;20027;-73
2022/09/03 00:36:17;;;;;;;37.28;35.83;;;;;;;15.84;67.25;101425.91;5076397;28;20029;-74
2022/09/03 00:38:43;;;;;;;32.38;31.10;;;;;;;15.84;66.88;101420.59;5063333;28;20024;-73
2022/09/03 00:41:30;;;;;;;35.67;34.35;;;;;;;15.82;67.02;101411.94;5079932;28;20024;-73
2022/09/03 00:44:33;;;;;;;33.78;32.55;;;;;;;15.82;67.05;101414.59;5071070;28;20431;-73
2022/09/03 00:47:23;;;;;;;30.35;29.25;;;;;;;15.80;67.16;101419.25;5072192;28;20024;-73
2022/09/03 00:50:03;;;;;;;36.20;34.72;;;;;;;15.76;67.24;101407.28;5071236;28;20021;-73
2022/09/03 00:52:47;;;;;;;34.17;32.78;;;;;;;15.76;67.04;101412.63;5074916;28;20027;-73
2022/09/03 00:55:35;;;;;;;35.72;34.40;;;;;;;15.76;67.29;101418.75;5077817;28;20020;-73
2022/09/03 00:58:31;;;;;;;35.97;34.63;;;;;;;15.74;66.86;101420.78;5067182;28;20044;-73
2022/09/03 01:00:56;;;;;;;37.80;36.28;;;;;;;15.71;67.41;101414.94;5054600;28;20021;-72
2022/09/03 01:03:22;;;;;;;32.05;30.70;;;;;;;15.64;67.63;101412.94;5083680;28;20042;-72
2022/09/03 01:06:02;;;;;;;38.40;37.00;;;;;;;15.64;67.80;101420.09;5082424;28;20408;-74
2022/09/03 01:08:46;;;;;;;38.78;37.35;;;;;;;15.61;68.16;101415.97;5072611;28;20096;-73
2022/09/03 01:11:48;;;;;;;42.00;40.38;;;;;;;15.51;68.60;101419.81;5075130;28;20032;-72
2022/09/03 01:14:36;;;;;;;39.05;37.63;;;;;;;15.47;68.56;101429.13;4987837;28;20420;-72
2022/09/03 01:17:16;;;;;;;44.05;42.47;;;;;;;15.42;69.25;101426.97;5001045;28;20042;-72
2022/09/03 01:19:59;;;;;;;50.50;48.55;;;;;;;15.39;69.30;101421.97;4995147;28;20030;-72
2022/09/03 01:23:03;;;;;;;46.75;45.03;;;;;;;15.43;69.42;101425.94;4995218;28;20524;-72
2022/09/03 01:25:50;;;;;;;45.85;44.10;;;;;;;15.39;68.80;101427.28;4991441;28;20085;-73
2022/09/03 01:28:40;;;;;;;50.42;48.55;;;;;;;15.25;69.28;101406.69;4997279;28;20386;-72
2022/09/03 01:31:19;;;;;;;52.05;50.13;;;;;;;15.32;69.92;101427.13;4997132;28;20046;-73
2022/09/03 01:34:03;;;;;;;55.03;52.92;;;;;;;15.29;69.71;101426.63;4998209;28;20447;-72
2022/09/03 01:36:43;;;;;;;55.50;53.38;;;;;;;15.27;70.05;101423.31;4997001;28;20117;-72
2022/09/03 01:39:19;;;;;;;60.90;58.53;;;;;;;15.25;70.30;101425.31;4996379;28;20025;-72
2022/09/03 01:42:15;;;;;;;56.13;54.05;;;;;;;15.14;70.05;101410.50;4992648;28;20054;-72
2022/09/03 01:45:00;;;;;;;52.97;51.03;;;;;;;15.20;69.94;101429.28;4996829;28;20510;-73
2022/09/03 01:47:48;;;;;;;55.10;53.05;;;;;;;15.20;70.41;101428.47;4995347;28;20053;-73
2022/09/03 01:50:43;;;;;;;62.88;60.53;;;;;;;15.16;70.49;101433.28;5045926;28;20074;-73
2022/09/03 01:53:14;;;;;;;54.05;52.05;;;;;;;15.14;70.64;101426.47;5078874;28;20515;-73
2022/09/03 01:55:58;;;;;;;55.67;53.47;;;;;;;15.11;70.85;101429.44;5074814;28;20465;-73
2022/09/03 01:58:36;;;;;;;57.63;55.45;;;;;;;14.94;71.01;101410.00;5081196;28;20067;-74
2022/09/03 02:01:09;;;;;;;61.97;59.67;;;;;;;15.01;71.05;101427.78;5073171;28;20036;-73
2022/09/03 02:03:39;;;;;;;52.38;50.38;;;;;;;14.97;71.33;101433.59;5075509;28;20035;-72
2022/09/03 02:06:06;;;;;;;50.28;48.38;;;;;;;14.91;71.48;101419.13;5079286;28;20100;-72
2022/09/03 02:08:32;;;;;;;50.10;48.22;;;;;;;14.95;71.47;101422.28;5074836;28;20015;-73
2022/09/03 02:11:01;;;;;;;55.83;53.72;;;;;;;14.79;71.56;101405.34;5072645;28;20127;-74
2022/09/03 02:13:36;;;;;;;53.42;51.35;;;;;;;14.86;71.78;101404.69;5077241;28;20104;-73
2022/09/03 02:16:15;;;;;;;52.88;50.88;;;;;;;14.94;71.58;101429.44;5072455;28;20016;-72
2022/09/03 02:18:45;;;;;;;55.95;53.85;;;;;;;14.91;71.68;101413.81;5056206;28;20116;-72
2022/09/03 02:21:15;;;;;;;57.33;55.22;;;;;;;14.93;71.51;101418.97;5075612;28;20059;-72
2022/09/03 02:23:41;;;;;;;55.13;52.92;;;;;;;14.94;71.30;101420.63;5082679;28;20028;-72
2022/09/03 02:26:09;;;;;;;60.60;58.35;;;;;;;14.94;71.35;101429.44;5079377;28;20332;-72
2022/09/03 02:28:34;;;;;;;55.85;53.75;;;;;;;14.96;70.93;101422.13;5080759;28;20077;-74
2022/09/03 02:31:00;;;;;;;57.05;54.92;;;;;;;14.97;71.31;101414.97;5076667;28;20087;-73
2022/09/03 02:33:26;;;;;;;53.53;51.50;;;;;;;14.98;71.22;101424.59;5081410;28;20028;-72
2022/09/03 02:35:52;;;;;;;57.08;54.88;;;;;;;14.85;70.98;101403.00;5079695;28;20023;-72
2022/09/03 02:38:27;;;;;;;60.15;57.92;;;;;;;14.90;71.01;101408.66;5068507;28;20031;-72
2022/09/03 02:40:53;;;;;;;50.67;48.78;;;;;;;14.93;71.27;101417.13;5084736;28;20365;-72
2022/09/03 02:43:30;;;;;;;59.05;56.85;;;;;;;14.92;71.43;101419.97;5082613;28;20149;-72
2022/09/03 02:46:01;;;;;;;59.33;57.13;;;;;;;14.90;71.84;101417.47;5076176;28;20172;-74
2022/09/03 02:48:27;;;;;;;57.70;55.50;;;;;;;14.86;72.10;101417.97;5071758;28;20047;-72
2022/09/03 02:50:52;;;;;;;53.75;51.67;;;;;;;14.82;71.86;101412.97;5076309;28;20029;-72
2022/09/03 02:53:18;;;;;;;57.88;55.67;;;;;;;14.81;71.99;101418.47;5074679;28;20507;-72
2022/09/03 02:55:43;;;;;;;59.33;56.97;;;;;;;14.73;71.76;101400.66;5081346;28;20039;-72
2022/09/03 02:58:09;;;;;;;56.90;54.80;;;;;;;14.76;72.03;101421.63;5079681;28;20028;-72
2022/09/03 03:00:35;;;;;;;53.72;50.97;;;;;;;14.76;72.22;101415.44;5075210;28;20276;-73
2022/09/03 03:03:01;;;;;;;56.65;54.53;;;;;;;14.75;72.21;101419.94;5079263;28;20036;-73
2022/09/03 03:05:41;;;;;;;55.78;53.70;;;;;;;14.72;72.20;101414.09;5074044;28;20031;-72
2022/09/03 03:08:07;;;;;;;53.05;51.00;;;;;;;14.72;72.44;101408.78;5072422;28;20487;-73
2022/09/03 03:10:34;;;;;;;50.72;48.83;;;;;;;14.70;72.62;101411.63;5060265;28;20035;-73
2022/09/03 03:12:59;;;;;;;55.50;53.38;;;;;;;14.66;72.84;101412.94;5075248;28;20028;-73
2022/09/03 03:15:26;;;;;;;50.30;48.42;;;;;;;14.63;72.83;101421.22;5079768;28;20472;-73
2022/09/03 03:17:55;;;;;;;46.65;44.80;;;;;;;14.64;72.61;101412.28;5071464;28;20417;-73
2022/09/03 03:20:21;;;;;;;51.20;49.28;;;;;;;14.63;72.84;101410.59;5080105;28;20032;-72
2022/09/03 03:22:46;;;;;;;54.58;52.45;;;;;;;14.60;72.40;101416.25;5072414;28;20033;-72
2022/09/03 03:25:12;;;;;;;52.75;50.70;;;;;;;14.55;72.87;101423.88;5085117;28;20437;-72
2022/09/03 03:27:39;;;;;;;48.67;46.85;;;;;;;14.57;72.67;101421.91;5073533;28;20055;-72
2022/09/03 03:30:08;;;;;;;56.80;54.45;;;;;;;14.48;72.63;101402.44;5089255;28;20044;-72
2022/09/03 03:32:33;;;;;;;48.97;47.08;;;;;;;14.53;73.32;101418.69;5063918;28;20085;-72
2022/09/03 03:34:58;;;;;;;54.60;52.25;;;;;;;14.55;73.21;101423.88;5080011;28;20028;-74
2022/09/03 03:37:24;;;;;;;51.95;49.90;;;;;;;14.48;73.43;101421.00;5082354;28;20161;-74
2022/09/03 03:39:49;;;;;;;46.45;44.67;;;;;;;14.50;73.22;101427.00;5074620;28;20504;-73
2022/09/03 03:42:14;;;;;;;49.75;47.78;;;;;;;14.49;73.89;101421.84;5086854;28;20024;-74
2022/09/03 03:44:42;;;;;;;46.90;45.17;;;;;;;14.47;73.98;101423.81;5079473;28;20028;-73
2022/09/03 03:47:08;;;;;;;48.15;46.30;;;;;;;14.45;74.04;101423.16;5080854;28;20028;-73
2022/09/03 03:49:33;;;;;;;47.22;45.47;;;;;;;14.43;74.32;101425.97;5082557;28;20036;-73
2022/09/03 03:51:59;;;;;;;46.65;44.85;;;;;;;14.41;74.16;101425.28;5070031;28;20289;-74
2022/09/03 03:54:24;;;;;;;44.75;42.92;;;;;;;14.27;74.51;101408.16;5082155;28;20027;-73
2022/09/03 03:56:50;;;;;;;43.72;41.92;;;;;;;14.39;74.78;101430.78;5077102;28;20021;-73
2022/09/03 03:59:15;;;;;;;47.78;45.78;;;;;;;14.36;74.67;101433.75;5078684;28;20040;-73
2022/09/03 04:01:40;;;;;;;43.55;41.88;;;;;;;14.40;74.80;101431.59;5074741;28;20025;-73
2022/09/03 04:04:06;;;;;;;47.50;45.70;;;;;;;14.42;74.24;101434.09;5057487;28;20031;-73
2022/09/03 04:06:31;;;;;;;46.97;45.20;;;;;;;14.38;74.47;101430.94;5077172;28;20028;-73
2022/09/03 04:08:56;;;;;;;45.60;43.83;;;;;;;14.40;74.65;101427.13;5079140;28;20043;-72
2022/09/03 04:11:23;;;;;;;42.10;40.50;;;;;;;14.14;74.49;101382.06;5075959;28;20109;-73
2022/09/03 04:13:50;;;;;;;46.38;44.67;;;;;;;14.44;74.93;101427.63;5082884;28;20031;-72
2022/09/03 04:16:24;;;;;;;51.47;49.55;;;;;;;14.33;74.78;101409.34;5078363;28;20020;-72
2022/09/03 04:18:49;;;;;;;42.90;41.30;;;;;;;14.34;74.82;101414.47;5075360;28;20103;-73
2022/09/03 04:21:21;;;;;;;43.45;41.83;;;;;;;14.37;75.20;101422.13;5077230;28;20035;-73
2022/09/03 04:23:48;;;;;;;49.40;47.45;;;;;;;14.33;75.20;101414.66;5079951;28;20581;-73
2022/09/03 04:26:16;;;;;;;42.78;41.05;;;;;;;14.32;75.24;101427.09;5055285;28;20104;-72
2022/09/03 04:28:41;;;;;;;44.42;42.70;;;;;;;14.27;75.97;101417.94;5079561;28;20072;-72
2022/09/03 04:31:09;;;;;;;46.20;44.50;;;;;;;14.23;75.56;101428.03;5077148;28;20147;-72
2022/09/03 04:33:38;;;;;;;46.83;45.03;;;;;;;14.13;75.14;101404.28;5079183;28;20031;-74
2022/09/03 04:36:11;;;;;;;44.40;42.65;;;;;;;14.20;75.43;101413.28;5076030;28;20580;-73
2022/09/03 04:38:38;;;;;;;46.97;44.97;;;;;;;14.23;75.46;101416.59;5077262;28;20036;-74
2022/09/03 04:41:06;;;;;;;42.80;41.17;;;;;;;14.13;75.82;101408.75;5074713;28;20025;-74
2022/09/03 04:43:31;;;;;;;47.15;45.33;;;;;;;14.24;75.82;101410.28;5081767;28;20388;-72
2022/09/03 04:46:02;;;;;;;50.50;48.58;;;;;;;14.19;75.64;101410.78;5076425;28;20033;-73
2022/09/03 04:48:28;;;;;;;47.05;45.22;;;;;;;14.19;75.48;101418.72;5076136;28;20690;-72
2022/09/03 04:51:04;;;;;;;44.65;42.95;;;;;;;14.16;76.19;101413.75;5071605;28;20021;-73
2022/09/03 04:53:34;;;;;;;45.63;43.85;;;;;;;14.16;76.09;101417.25;5073095;28;20465;-72
2022/09/03 04:56:00;;;;;;;45.45;43.58;;;;;;;14.16;75.87;101409.28;5079088;28;20021;-72
2022/09/03 04:58:25;;;;;;;44.25;42.47;;;;;;;14.17;76.00;101410.09;5076287;28;20028;-72
2022/09/03 05:00:51;;;;;;;46.83;44.92;;;;;;;14.10;76.17;101398.47;5077989;28;20028;-72
2022/09/03 05:03:16;;;;;;;46.10;44.22;;;;;;;14.15;75.90;101412.06;5083628;28;20032;-72
2022/09/03 05:05:42;;;;;;;43.83;42.13;;;;;;;14.13;76.20;101414.06;5074566;28;20021;-71
2022/09/03 05:08:07;;;;;;;46.03;44.28;;;;;;;14.14;75.59;101415.75;5078890;28;20028;-72
2022/09/03 05:10:33;;;;;;;43.58;41.97;;;;;;;14.15;75.85;101412.06;5076545;28;20093;-72
2022/09/03 05:13:00;;;;;;;45.30;43.60;;;;;;;14.16;75.71;101413.75;5076117;28;20110;-72
2022/09/03 05:15:27;;;;;;;46.47;44.72;;;;;;;14.03;75.97;101392.13;5078938;28;20020;-73
2022/09/03 05:18:01;;;;;;;44.65;42.92;;;;;;;14.11;76.19;101416.91;5054416;28;20028;-73
2022/09/03 05:20:28;;;;;;;43.25;41.63;;;;;;;14.03;76.40;101406.22;5070149;28;20544;-73
2022/09/03 05:22:54;;;;;;;41.53;39.85;;;;;;;14.09;76.33;101413.56;5073961;28;20128;-73
2022/09/03 05:25:20;;;;;;;42.70;41.10;;;;;;;14.08;76.45;101411.88;5068329;28;20036;-72
2022/09/03 05:27:46;;;;;;;46.97;44.30;;;;;;;14.04;76.14;101415.84;5072213;28;20351;-72
2022/09/03 05:30:12;;;;;;;45.15;43.30;;;;;;;14.08;76.11;101411.06;5072127;28;20421;-71
2022/09/03 05:32:37;;;;;;;48.05;46.13;;;;;;;14.05;76.46;101400.78;5075627;28;20036;-72
2022/09/03 05:35:03;;;;;;;43.78;42.05;;;;;;;13.99;75.98;101404.88;5066582;28;20036;-73
2022/09/03 05:37:28;;;;;;;44.03;42.33;;;;;;;14.00;76.42;101414.50;5067376;28;20028;-73
2022/09/03 05:39:54;;;;;;;44.95;43.15;;;;;;;14.03;76.42;101413.38;5075525;28;20089;-73
2022/09/03 05:42:20;;;;;;;46.65;44.85;;;;;;;14.06;76.50;101405.09;5072808;28;20071;-73
2022/09/03 05:44:48;;;;;;;43.40;41.80;;;;;;;14.13;76.46;101409.59;5069192;28;20373;-73
2022/09/03 05:47:14;;;;;;;44.95;43.25;;;;;;;14.08;75.96;101389.81;5069886;28;20027;-73
2022/09/03 05:49:40;;;;;;;45.88;44.10;;;;;;;14.21;75.81;101400.81;5072504;28;20100;-73
2022/09/03 05:52:05;;;;;;;48.30;46.25;;;;;;;14.24;75.88;101400.53;5070205;28;20131;-74
2022/09/03 05:54:30;;;;;;;50.85;48.85;;;;;;;14.28;75.90;101401.00;5079033;28;20027;-73
2022/09/03 05:56:56;;;;;;;50.40;48.50;;;;;;;14.28;75.25;101401.00;5070614;28;20033;-73
2022/09/03 05:59:21;;;;;;;47.70;45.45;;;;;;;14.33;75.39;101396.91;5070319;28;20032;-73
2022/09/03 06:01:48;;;;;;;53.28;51.28;;;;;;;14.39;75.07;101401.56;5068305;28;20059;-73
2022/09/03 06:04:15;;;;;;;53.63;51.47;;;;;;;14.44;74.95;101405.53;5049951;28;20056;-73
2022/09/03 06:06:43;;;;;;;55.33;53.28;;;;;;;14.48;74.89;101402.44;5074246;28;20031;-73
2022/09/03 06:09:16;;;;;;;58.78;56.60;;;;;;;14.50;74.66;101408.41;5068979;28;20503;-73
2022/09/03 06:11:42;;;;;;;65.78;62.42;;;;;;;14.47;74.23;101395.44;5068419;28;20021;-73
2022/09/03 06:14:10;;;;;;;69.68;66.95;;;;;;;14.57;74.28;101406.78;5057278;28;20101;-74
2022/09/03 06:16:40;;;;;;;59.85;57.63;;;;;;;14.66;74.28;101407.63;5077261;28;20031;-73
2022/09/03 06:19:09;;;;;;;67.43;64.65;;;;;;;14.72;74.06;101404.34;5070461;28;20425;-73
2022/09/03 06:21:41;;;;;;;55.75;53.65;;;;;;;14.67;73.82;101395.19;5067298;28;20028;-73
2022/09/03 06:24:09;;;;;;;55.42;53.35;;;;;;;14.69;73.83;101395.84;5072801;28;20031;-73
2022/09/03 06:26:34;;;;;;;51.33;49.30;;;;;;;14.81;73.59;101413.97;5073016;28;20078;-73
2022/09/03 06:28:59;;;;;;;60.00;57.67;;;;;;;14.91;73.93;101418.28;5071985;28;20024;-73
2022/09/03 06:31:26;;;;;;;51.60;49.50;;;;;;;14.94;73.17;101396.72;5072742;28;20263;-74
2022/09/03 06:33:52;;;;;;;43.53;41.85;;;;;;;14.99;73.02;101389.91;5070464;28;20025;-73
2022/09/03 06:36:18;;;;;;;46.00;43.47;;;;;;;15.17;72.64;101418.16;5069444;28;20497;-73
2022/09/03 06:38:45;;;;;;;45.20;43.53;;;;;;;15.14;72.40;101392.72;5076165;28;20031;-73
2022/09/03 06:41:19;;;;;;;38.33;36.85;;;;;;;15.25;72.29;101407.50;5070718;28;20025;-73
2022/09/03 06:43:46;;;;;;;37.05;35.65;;;;;;;15.41;72.30;101406.66;5076409;28;20059;-74
2022/09/03 06:46:14;;;;;;;34.90;33.60;;;;;;;15.43;71.51;101402.00;5072248;28;20032;-73
2022/09/03 06:48:40;;;;;;;37.92;36.47;;;;;;;15.54;71.28;101409.63;5074333;28;20070;-73
2022/09/03 06:51:08;;;;;;;47.50;45.70;;;;;;;15.56;70.52;101407.63;5075108;28;20052;-74
2022/09/03 06:53:37;;;;;;;42.22;40.65;;;;;;;15.63;70.72;101403.31;5069933;28;20301;-73
2022/09/03 06:56:05;;;;;;;52.97;50.97;;;;;;;15.59;70.59;101409.97;5068831;28;20595;-73
2022/09/03 06:58:34;;;;;;;56.05;53.95;;;;;;;15.45;70.14;101404.50;5071010;28;20762;-73
2022/09/03 07:01:20;;;;;;;56.80;54.70;;;;;;;15.54;70.51;101406.97;5072178;28;20077;-74
2022/09/03 07:03:47;;;;;;;49.78;47.85;;;;;;;15.69;70.33;101395.66;5074841;28;20025;-73
2022/09/03 07:06:16;;;;;;;54.70;52.67;;;;;;;15.62;69.93;101416.78;5073215;28;20028;-73
2022/09/03 07:08:42;;;;;;;53.50;51.50;;;;;;;15.81;70.17;101408.44;5072794;28;20247;-73
2022/09/03 07:11:11;;;;;;;55.22;52.90;;;;;;;16.12;68.71;101409.53;5066776;28;20039;-73
2022/09/03 07:13:39;;;;;;;53.78;51.75;;;;;;;16.71;66.89;101428.53;5073405;28;20124;-73
2022/09/03 07:16:26;;;;;;;43.92;42.13;;;;;;;17.04;66.34;101423.00;5071017;28;20021;-73
2022/09/03 07:18:52;;;;;;;28.20;27.08;;;;;;;17.18;65.23;101422.22;5074738;28;20544;-74
2022/09/03 07:21:23;;;;;;;27.55;26.48;;;;;;;17.50;65.25;101430.94;5079549;28;20034;-74
2022/09/03 07:23:50;;;;;;;27.00;25.77;;;;;;;17.57;64.08;101426.53;5074021;28;20396;-74
2022/09/03 07:26:29;;;;;;;30.90;29.70;;;;;;;18.26;62.52;101428.13;5068356;28;20020;-74
2022/09/03 07:28:55;;;;;;;28.65;27.55;;;;;;;18.14;61.81;101425.13;5075007;28;20419;-74
2022/09/03 07:31:24;;;;;;;38.30;36.85;;;;;;;18.41;61.99;101423.59;5074950;28;20082;-74
2022/09/03 07:34:00;;;;;;;47.85;45.95;;;;;;;18.64;61.31;101423.44;5075234;28;20076;-74
2022/09/03 07:36:27;;;;;;;50.22;48.08;;;;;;;19.13;59.97;101429.91;5070651;28;20059;-74
2022/09/03 07:38:56;;;;;;;57.28;55.10;;;;;;;18.82;60.22;101407.00;5072551;28;20027;-74
2022/09/03 07:41:22;;;;;;;55.53;53.38;;;;;;;19.45;59.56;101422.34;5067289;28;20563;-74
2022/09/03 07:43:47;;;;;;;56.83;54.60;;;;;;;18.68;60.79;101418.53;5069536;28;20028;-74
2022/09/03 07:46:21;;;;;;;51.63;49.53;;;;;;;18.78;60.53;101426.28;5075328;28;20031;-74
2022/09/03 07:48:48;;;;;;;59.95;57.65;;;;;;;19.70;59.35;101420.91;5072747;28;20507;-73
2022/09/03 07:51:13;;;;;;;55.70;53.42;;;;;;;19.89;57.17;101424.72;5076285;28;20028;-73
2022/09/03 07:53:39;;;;;;;52.13;50.13;;;;;;;19.96;58.45;101407.88;5076013;28;20040;-73
2022/09/03 07:56:07;;;;;;;50.25;48.35;;;;;;;19.85;57.66;101422.63;5054879;28;20048;-73
2022/09/03 07:58:34;;;;;;;47.92;46.05;;;;;;;20.25;56.78;101407.59;5068625;28;20154;-74
2022/09/03 08:01:05;;;;;;;45.75;43.88;;;;;;;20.49;56.56;101429.50;5073093;28;20025;-74
2022/09/03 08:03:31;;;;;;;41.35;39.75;;;;;;;21.15;55.51;101428.84;5072512;28;20021;-74
2022/09/03 08:06:00;;;;;;;44.95;42.95;;;;;;;21.33;54.34;101441.66;5074118;28;20049;-73
2022/09/03 08:08:26;;;;;;;40.78;39.25;;;;;;;21.39;54.42;101427.41;5071121;28;20021;-73
2022/09/03 08:10:51;;;;;;;34.47;33.13;;;;;;;21.47;55.04;101426.38;5068331;28;20455;-73
2022/09/03 08:13:16;;;;;;;28.95;27.85;;;;;;;21.95;54.00;101435.00;5076440;28;20405;-73
2022/09/03 08:15:42;;;;;;;28.70;27.55;;;;;;;22.70;52.87;101433.66;5077645;28;20095;-73
2022/09/03 08:18:08;;;;;;;26.60;25.60;;;;;;;24.18;49.92;101435.66;5079230;28;20507;-73
2022/09/03 08:20:36;;;;;;;24.65;23.65;;;;;;;24.34;49.07;101428.00;5074147;28;20059;-73
2022/09/03 08:23:02;;;;;;;20.20;19.38;;;;;;;23.14;50.36;101451.59;5076084;28;20016;-73
2022/09/03 08:25:28;;;;;;;19.80;19.00;;;;;;;22.96;51.42;101433.47;5076024;28;20258;-73
2022/09/03 08:27:56;;;;;;;20.70;19.88;;;;;;;22.34;52.46;101424.31;5075992;28;20497;-73
2022/09/03 08:30:23;;;;;;;22.42;20.75;;;;;;;22.10;52.96;101417.75;5078536;28;20048;-73
2022/09/03 08:32:49;;;;;;;23.63;22.73;;;;;;;22.53;52.40;101434.16;5073060;28;20051;-74
2022/09/03 08:35:14;;;;;;;20.02;19.23;;;;;;;23.55;50.63;101439.44;5073705;28;20024;-74
2022/09/03 08:37:40;;;;;;;29.38;28.17;;;;;;;23.10;51.12;101436.09;5077277;28;20024;-74
2022/09/03 08:40:06;;;;;;;24.75;23.65;;;;;;;22.70;52.19;101428.28;5078146;28;20396;-74
2022/09/03 08:42:43;;;;;;;18.02;17.30;;;;;;;22.84;52.21;101424.44;5078515;28;20044;-73
2022/09/03 08:45:15;;;;;;;27.70;26.35;;;;;;;23.40;50.96;101418.22;5077765;28;20361;-74
2022/09/03 08:47:46;;;;;;;26.15;25.15;;;;;;;24.12;49.31;101427.66;5076112;28;20493;-74
2022/09/03 08:50:31;;;;;;;23.58;22.67;;;;;;;23.95;49.70;101420.19;5074833;28;20034;-74
2022/09/03 08:53:08;;;;;;;23.75;22.85;;;;;;;23.43;49.98;101435.84;5075365;28;20024;-74
2022/09/03 08:55:49;;;;;;;23.15;22.25;;;;;;;23.75;50.74;101431.19;5073523;28;20048;-73
2022/09/03 08:58:20;;;;;;;24.15;23.25;;;;;;;23.68;49.86;101421.50;5074941;28;20105;-73
2022/09/03 09:01:00;;;;;;;26.77;25.70;;;;;;;24.30;50.31;101430.34;5077645;28;20036;-74
2022/09/03 09:03:42;;;;;;;26.75;25.67;;;;;;;24.07;50.01;101428.34;5072874;28;20036;-74
2022/09/03 09:06:15;;;;;;;25.20;24.23;;;;;;;24.05;49.55;101426.94;5075151;28;20131;-69
2022/09/03 09:09:00;;;;;;;25.85;24.75;;;;;;;24.52;48.59;101428.00;5061534;28;20021;-70
2022/09/03 09:11:44;;;;;;;25.00;24.08;;;;;;;24.92;48.61;101416.63;5075046;28;20035;-71
2022/09/03 09:14:15;;;;;;;26.92;25.85;;;;;;;24.83;48.21;101420.72;5076016;28;20016;-70
2022/09/03 09:16:58;;;;;;;25.17;24.02;;;;;;;25.11;48.05;101406.56;5077780;28;20028;-72
2022/09/03 09:19:36;;;;;;;22.98;21.98;;;;;;;25.92;46.27;101414.91;5078194;28;20027;-71
2022/09/03 09:22:08;;;;;;;24.52;23.55;;;;;;;25.94;46.50;101417.38;5073345;28;20852;-72
2022/09/03 09:24:40;;;;;;;26.88;25.77;;;;;;;24.61;48.13;101410.44;5073431;28;20408;-75
2022/09/03 09:27:06;;;;;;;21.83;20.92;;;;;;;24.88;47.62;101414.63;5076132;28;20503;-74
2022/09/03 09:29:35;;;;;;;27.45;26.35;;;;;;;23.94;49.51;101415.03;5078879;28;20060;-74
2022/09/03 09:32:01;;;;;;;29.80;28.70;;;;;;;24.63;49.01;101392.16;5076161;28;20099;-74
2022/09/03 09:34:26;;;;;;;24.02;23.08;;;;;;;24.78;49.04;101421.41;5078241;28;20456;-74
2022/09/03 09:36:55;;;;;;;28.98;27.52;;;;;;;24.20;49.38;101411.19;5068484;28;20048;-74
2022/09/03 09:39:21;;;;;;;27.15;26.15;;;;;;;25.66;47.71;101416.22;5072327;28;20050;-74
2022/09/03 09:42:08;;;;;;;22.88;21.80;;;;;;;26.47;46.06;101417.06;5074852;28;20081;-74
2022/09/03 09:44:35;;;;;;;23.00;22.10;;;;;;;24.81;47.66;101422.81;5071722;28;20124;-74
2022/09/03 09:47:06;;;;;;;30.35;29.10;;;;;;;24.17;49.11;101388.19;5072840;28;20084;-74
2022/09/03 09:49:31;;;;;;;;;;;;;;;25.44;47.53;101414.13;5070260;28;20098;-74
2022/09/03 09:52:11;;;;;;;27.27;26.13;;;;;;;24.42;49.00;101422.31;5068917;28;20368;-74
2022/09/03 09:54:38;;;;;;;28.80;27.60;;;;;;;24.95;48.73;101415.31;5071452;28;20024;-74
2022/09/03 09:57:05;;;;;;;26.60;25.55;;;;;;;26.05;46.71;101414.66;5072219;28;20150;-74
2022/09/03 09:59:32;;;;;;;26.90;25.60;;;;;;;26.55;45.27;101409.63;5077628;28;20032;-74
2022/09/03 10:02:25;;;;;;;24.65;23.65;;;;;;;27.01;44.61;101432.94;5068747;28;20051;-72
2022/09/03 10:04:50;;;;;;;26.95;25.83;;;;;;;26.22;45.57;101400.38;5073851;28;20024;-76
2022/09/03 10:07:18;;;;;;;28.30;27.10;;;;;;;26.29;45.54;101413.75;5076305;28;20316;-72
2022/09/03 10:09:44;;;;;;;28.77;27.58;;;;;;;26.37;46.08;101405.22;5075706;28;20021;-74
2022/09/03 10:12:24;;;;;;;27.40;26.20;;;;;;;27.43;44.19;101412.75;5071273;28;20032;-72
2022/09/03 10:15:02;;;;;;;;;;;;;;;27.30;44.04;101416.63;5074021;28;20031;-72
2022/09/03 10:17:53;;;;;;;29.10;28.00;;;;;;;28.12;43.13;101406.88;5070503;28;20330;-71
2022/09/03 10:20:39;;;;;;;26.77;25.77;;;;;;;27.75;42.86;101399.34;5071939;28;20107;-71
2022/09/03 10:23:24;;;;;;;31.88;30.67;;;;;;;26.92;43.82;101406.50;5068222;28;20070;-71
2022/09/03 10:25:56;;;;;;;28.20;27.10;;;;;;;26.57;44.20;101402.13;5070245;28;20036;-71
2022/09/03 10:28:25;;;;;;;32.03;30.52;;;;;;;25.68;45.57;101395.19;5069074;28;20021;-70
2022/09/03 10:30:59;;;;;;;31.00;29.45;;;;;;;25.72;46.05;101398.22;5067474;28;20045;-71
2022/09/03 10:33:41;;;;;;;32.30;30.90;;;;;;;26.24;45.33;101357.66;5068026;28;20040;-71
2022/09/03 10:36:20;;;;;;;29.95;28.75;;;;;;;27.06;43.71;101397.78;5072162;28;20041;-71
2022/09/03 10:38:53;;;;;;;28.63;27.53;;;;;;;26.59;43.38;101375.63;5074452;28;20029;-71
2022/09/03 10:41:58;;;;;;;26.52;25.42;;;;;;;26.99;43.28;101389.03;5070409;28;20021;-71
2022/09/03 10:44:34;;;;;;;29.13;27.98;;;;;;;27.11;43.14;101404.38;5075842;28;20016;-71
2022/09/03 10:47:28;;;;;;;27.08;26.08;;;;;;;26.72;42.83;101391.56;5076837;28;20035;-71
2022/09/03 10:50:14;;;;;;;28.00;26.92;;;;;;;26.53;43.93;101392.81;5069947;28;20021;-71
2022/09/03 10:53:28;;;;;;;34.92;33.47;;;;;;;26.45;42.76;101407.56;5070319;28;20028;-71
2022/09/03 10:56:04;;;;;;;31.00;29.77;;;;;;;26.29;42.97;101378.59;5008579;28;20026;-71
2022/09/03 10:58:48;;;;;;;28.23;27.13;;;;;;;26.70;42.39;101387.44;5012679;28;20531;-71
2022/09/03 11:01:31;;;;;;;32.55;31.35;;;;;;;26.70;42.42;101385.56;5008250;28;20060;-73
2022/09/03 11:04:27;;;;;;;28.58;27.38;;;;;;;26.27;43.75;101390.44;5007575;28;20041;-72
2022/09/03 11:06:58;;;;;;;28.05;26.95;;;;;;;26.35;42.69;101378.44;5010499;28;20103;-71
2022/09/03 11:09:27;;;;;;;27.83;26.58;;;;;;;27.90;41.72;101374.34;5006829;28;20033;-71
2022/09/03 11:12:00;;;;;;;25.15;24.25;;;;;;;27.51;41.03;101379.78;5002990;28;20120;-71
2022/09/03 11:14:43;;;;;;;29.30;27.95;;;;;;;28.04;40.17;101380.19;5002916;28;20135;-71
2022/09/03 11:17:15;;;;;;;28.35;27.25;;;;;;;27.77;40.67;101391.78;5005198;28;20038;-72
2022/09/03 11:19:50;;;;;;;26.52;25.52;;;;;;;28.60;39.89;101383.50;5002308;28;20033;-72
2022/09/03 11:22:17;;;;;;;29.48;28.27;;;;;;;28.63;39.44;101374.84;5001442;28;20536;-72
2022/09/03 11:24:45;;;;;;;30.02;28.83;;;;;;;28.26;39.92;101370.13;4986431;28;20620;-73
2022/09/03 11:27:30;;;;;;;29.13;27.92;;;;;;;27.56;40.70;101381.75;5005788;28;20040;-71
2022/09/03 11:30:08;;;;;;;29.63;28.42;;;;;;;27.74;40.20;101376.00;5002347;28;20054;-72
2022/09/03 11:33:06;;;;;;;29.50;28.33;;;;;;;27.73;39.22;101374.38;5048574;28;20044;-72